Time;durP1;ratioP1;P1;durP2;ratioP2;P2;SDS_P1;SDS_P2;PMS_P1;PMS_P2;Temp;Humidity;BMP_temperature;BMP_pressure;BME280_temperature;BME280_humidity;BME280_pressure;Samples;Min_cycle;Max_cycle;Signal;HPM_P1;HPM_P2
2021/01/09 00:01:22;;;;;;;97.73;52.50;;;;;;;-0.03;81.58;99982.61;120588;1151;104470;-81
2021/01/09 00:03:50;;;;;;;109.25;56.05;;;;;;;-0.05;82.08;99986.88;120653;1151;104304;-82
2021/01/09 00:06:17;;;;;;;103.03;54.80;;;;;;;-0.03;81.84;99985.17;120562;1151;104378;-81
2021/01/09 00:08:44;;;;;;;100.00;55.33;;;;;;;-0.05;81.78;99979.19;120578;1151;104426;-81
2021/01/09 00:11:11;;;;;;;101.53;55.70;;;;;;;-0.05;81.92;99980.89;120616;1151;104842;-80
2021/01/09 00:13:38;;;;;;;107.55;57.10;;;;;;;-0.06;81.96;99976.62;120704;1151;102513;-82
2021/01/09 00:16:06;;;;;;;102.77;55.00;;;;;;;-0.04;82.07;99980.90;120642;1151;104323;-80
2021/01/09 00:18:34;;;;;;;102.67;56.63;;;;;;;-0.02;82.38;99984.33;120583;1150;104812;-80
2021/01/09 00:21:01;;;;;;;103.90;55.43;;;;;;;0.02;82.12;99980.10;120636;1150;104324;-81
2021/01/09 00:23:29;;;;;;;101.97;56.00;;;;;;;0.03;82.06;99978.39;120619;1151;104449;-81
2021/01/09 00:25:56;;;;;;;103.27;55.30;;;;;;;0.05;82.37;99984.39;120636;1150;103175;-82
2021/01/09 00:28:23;;;;;;;101.03;55.17;;;;;;;0.06;82.12;99991.23;120618;1150;104356;-82
2021/01/09 00:30:50;;;;;;;99.83;53.13;;;;;;;0.05;82.09;99989.52;121132;1151;104336;-81
2021/01/09 00:33:17;;;;;;;100.70;53.80;;;;;;;0.01;81.99;99990.35;121348;1151;104337;-81
2021/01/09 00:35:44;;;;;;;105.77;54.43;;;;;;;-0.05;82.12;99986.88;121155;1151;104427;-81
2021/01/09 00:38:11;;;;;;;101.03;54.07;;;;;;;-0.03;82.38;99989.45;120732;1151;104818;-82
2021/01/09 00:40:39;;;;;;;94.07;52.90;;;;;;;0.01;82.71;99987.79;120539;1151;104425;-81
2021/01/09 00:43:06;;;;;;;107.17;56.73;;;;;;;-0.02;82.79;99984.33;120575;1154;104347;-82
2021/01/09 00:45:33;;;;;;;96.82;53.78;;;;;;;-0.02;82.35;99981.77;120581;1151;104410;-81
2021/01/09 00:48:02;;;;;;;105.43;57.73;;;;;;;-0.03;82.25;99981.76;120613;1151;104308;-82
2021/01/09 00:50:29;;;;;;;103.83;54.60;;;;;;;-0.03;82.30;99986.88;120654;1150;104147;-79
2021/01/09 00:52:56;;;;;;;103.13;55.73;;;;;;;-0.04;82.22;99986.03;120603;1150;104346;-80
2021/01/09 00:55:23;;;;;;;102.40;57.27;;;;;;;-0.06;82.29;99989.44;120648;1150;104503;-81
2021/01/09 00:57:50;;;;;;;105.70;58.00;;;;;;;-0.07;82.20;99991.14;120620;1153;103012;-81
2021/01/09 01:00:17;;;;;;;106.63;57.00;;;;;;;-0.07;82.34;99988.58;120595;1151;103300;-82
2021/01/09 01:02:46;;;;;;;98.90;53.00;;;;;;;-0.09;82.04;99991.98;120588;1151;104442;-82
2021/01/09 01:05:13;;;;;;;110.22;56.95;;;;;;;-0.12;82.31;99987.70;120615;1151;104384;-82
2021/01/09 01:07:40;;;;;;;102.95;54.45;;;;;;;-0.13;82.24;99985.13;120630;1150;104365;-82
2021/01/09 01:10:08;;;;;;;106.90;56.23;;;;;;;-0.14;82.33;99989.39;120563;1151;104853;-82
2021/01/09 01:12:35;;;;;;;101.90;54.83;;;;;;;-0.16;82.31;99985.97;120589;1150;104360;-81
2021/01/09 01:15:04;;;;;;;103.78;53.50;;;;;;;-0.20;82.36;99996.16;120657;1150;104414;-81
2021/01/09 01:17:32;;;;;;;106.70;55.03;;;;;;;-0.23;82.30;99988.45;120606;1151;104435;-81
2021/01/09 01:19:59;;;;;;;107.20;56.37;;;;;;;-0.23;82.93;99994.44;120679;1150;104572;-81
2021/01/09 01:22:27;;;;;;;104.00;57.37;;;;;;;-0.25;82.57;99991.02;120671;1151;105494;-82
2021/01/09 01:24:55;;;;;;;112.93;58.53;;;;;;;-0.23;82.86;99984.19;120683;1151;104423;-82
2021/01/09 01:27:22;;;;;;;104.73;55.43;;;;;;;-0.22;82.64;99991.03;120623;1148;104460;-81
2021/01/09 01:29:49;;;;;;;109.23;57.63;;;;;;;-0.25;82.77;99985.88;120590;1150;104450;-81
2021/01/09 01:32:16;;;;;;;114.03;59.30;;;;;;;-0.27;82.55;99982.45;120563;1151;104361;-80
2021/01/09 01:34:43;;;;;;;114.33;59.10;;;;;;;-0.24;82.72;99994.43;120594;1150;104345;-81
2021/01/09 01:37:11;;;;;;;112.95;60.60;;;;;;;-0.23;83.23;99991.02;120622;1151;104431;-82
2021/01/09 01:39:38;;;;;;;118.43;62.43;;;;;;;-0.21;82.93;99991.88;120653;1150;104348;-81
2021/01/09 01:42:06;;;;;;;121.13;61.77;;;;;;;-0.21;82.79;99987.61;120645;1150;104410;-81
2021/01/09 01:44:33;;;;;;;115.03;58.30;;;;;;;-0.18;82.85;99987.67;120656;1151;103035;-81
2021/01/09 01:47:01;;;;;;;108.00;57.27;;;;;;;-0.19;82.77;99991.05;120604;1151;104390;-81
2021/01/09 01:49:30;;;;;;;120.47;59.50;;;;;;;-0.19;82.72;99985.92;120580;1151;104374;-80
2021/01/09 01:51:58;;;;;;;117.33;60.63;;;;;;;-0.18;83.04;99982.54;120572;1150;104372;-82
2021/01/09 01:54:25;;;;;;;114.03;58.67;;;;;;;-0.17;82.81;99980.83;120583;1151;104529;-81
2021/01/09 01:56:53;;;;;;;119.70;61.27;;;;;;;-0.17;83.12;99979.13;120602;1151;101861;-81
2021/01/09 01:59:20;;;;;;;123.97;62.33;;;;;;;-0.15;83.23;99981.70;120689;1150;102624;-82
2021/01/09 02:01:50;;;;;;;115.63;59.83;;;;;;;-0.15;83.05;99974.01;120558;1151;104391;-81
2021/01/09 02:04:18;;;;;;;115.63;60.60;;;;;;;-0.15;82.69;99977.42;120634;1151;103307;-81
2021/01/09 02:06:48;;;;;;;116.67;61.60;;;;;;;-0.12;83.09;99972.31;120572;1151;104813;-81
2021/01/09 02:09:22;;;;;;;112.87;58.70;;;;;;;-0.11;82.82;99968.05;120670;1151;104323;-82
2021/01/09 02:12:09;;;;;;;123.20;62.50;;;;;;;-0.09;82.97;99974.03;120634;1152;104398;-81
2021/01/09 02:14:44;;;;;;;123.43;63.03;;;;;;;-0.07;82.62;99969.77;120503;1151;104615;-82
2021/01/09 02:17:13;;;;;;;111.30;57.73;;;;;;;-0.07;82.76;99970.63;120477;1151;104374;-81
2021/01/09 02:19:42;;;;;;;121.50;62.00;;;;;;;-0.09;82.42;99977.45;120582;1151;102558;-81
2021/01/09 02:22:13;;;;;;;113.53;59.53;;;;;;;-0.10;82.47;99980.02;120555;1151;103297;-81
2021/01/09 02:24:42;;;;;;;105.10;57.87;;;;;;;-0.09;82.95;99974.03;121047;1150;104464;-81
2021/01/09 02:27:11;;;;;;;110.97;58.10;;;;;;;-0.11;82.72;99974.03;121245;1151;103192;-82
2021/01/09 02:29:52;;;;;;;116.17;60.83;;;;;;;-0.11;82.88;99974.03;121374;1151;103080;-81
2021/01/09 02:32:26;;;;;;;112.75;59.60;;;;;;;-0.08;82.76;99979.17;120554;1151;104348;-81
2021/01/09 02:34:59;;;;;;;109.93;56.37;;;;;;;-0.10;82.61;99973.18;120620;1151;104356;-81
2021/01/09 02:37:27;;;;;;;111.13;60.73;;;;;;;-0.14;82.78;99976.58;120634;1151;103277;-82
2021/01/09 02:39:55;;;;;;;105.27;56.70;;;;;;;-0.14;82.72;99971.45;120568;1151;104354;-82
2021/01/09 02:42:22;;;;;;;109.47;57.03;;;;;;;-0.13;82.74;99980.86;120562;1151;104458;-82
2021/01/09 02:44:51;;;;;;;101.20;53.57;;;;;;;-0.18;82.57;99990.23;120565;1151;104395;-82
2021/01/09 02:47:19;;;;;;;107.97;56.20;;;;;;;-0.20;82.80;99980.78;120603;1151;104620;-82
2021/01/09 02:49:46;;;;;;;104.70;56.15;;;;;;;-0.20;82.41;99983.34;120580;1151;104332;-82
2021/01/09 02:52:13;;;;;;;101.87;56.25;;;;;;;-0.23;82.79;99981.62;120590;1151;104401;-82
2021/01/09 02:54:40;;;;;;;103.83;57.03;;;;;;;-0.20;82.91;99985.91;120602;1150;104416;-81
2021/01/09 02:57:07;;;;;;;89.80;48.30;;;;;;;-0.19;82.79;99979.94;120596;1151;104513;-81
2021/01/09 02:59:34;;;;;;;102.97;53.40;;;;;;;-0.22;82.53;99974.80;120591;1151;104418;-82
2021/01/09 03:02:02;;;;;;;94.67;50.47;;;;;;;-0.23;82.64;99978.20;120544;1151;104418;-82
2021/01/09 03:04:30;;;;;;;104.93;56.50;;;;;;;-0.24;82.79;99982.47;120588;1151;104447;-82
2021/01/09 03:06:57;;;;;;;100.27;55.33;;;;;;;-0.21;83.03;99987.61;120559;1151;102410;-81
2021/01/09 03:09:24;;;;;;;103.80;56.15;;;;;;;-0.21;82.66;99982.48;120660;1151;104432;-81
2021/01/09 03:11:51;;;;;;;99.10;53.07;;;;;;;-0.18;82.88;99977.41;120550;1151;104320;-81
2021/01/09 03:14:18;;;;;;;101.82;57.23;;;;;;;-0.17;82.77;99974.00;120540;1151;104328;-81
2021/01/09 03:16:45;;;;;;;107.07;56.87;;;;;;;-0.13;82.65;99983.42;120609;1151;104430;-81
2021/01/09 03:19:13;;;;;;;104.10;54.80;;;;;;;-0.12;82.72;99980.01;120613;1151;103570;-81
2021/01/09 03:21:40;;;;;;;102.93;54.90;;;;;;;-0.12;83.11;99977.44;120597;1151;104466;-81
2021/01/09 03:24:07;;;;;;;91.63;51.63;;;;;;;-0.09;82.55;99979.16;120575;1151;104508;-81
2021/01/09 03:26:34;;;;;;;99.03;53.58;;;;;;;-0.11;82.52;99971.47;120693;1151;104460;-81
2021/01/09 03:29:03;;;;;;;97.00;52.63;;;;;;;-0.10;82.69;99977.45;120587;1154;104349;-81
2021/01/09 03:31:30;;;;;;;102.43;53.07;;;;;;;-0.10;82.50;99978.30;120647;1151;104439;-82
2021/01/09 03:33:57;;;;;;;99.00;52.47;;;;;;;-0.07;82.64;99972.34;120612;1150;104431;-81
2021/01/09 03:36:25;;;;;;;99.07;53.57;;;;;;;-0.06;83.00;99967.22;120531;1151;104551;-81
2021/01/09 03:38:52;;;;;;;101.63;54.70;;;;;;;-0.04;82.87;99969.78;120621;1151;104399;-81
2021/01/09 03:41:19;;;;;;;99.20;53.05;;;;;;;-0.02;82.90;99968.09;120635;1150;104384;-81
2021/01/09 03:43:46;;;;;;;91.83;50.60;;;;;;;-0.02;82.50;99979.20;120623;1150;104412;-82
2021/01/09 03:46:13;;;;;;;95.67;52.13;;;;;;;-0.04;82.49;99977.48;120621;1150;104544;-81
2021/01/09 03:48:41;;;;;;;94.35;50.98;;;;;;;-0.02;82.74;99974.07;120676;1151;104451;-81
2021/01/09 03:51:08;;;;;;;89.73;50.27;;;;;;;-0.03;82.41;99976.63;120596;1150;104311;-81
2021/01/09 03:53:35;;;;;;;93.67;51.17;;;;;;;-0.04;82.62;99980.90;120575;1151;104383;-82
2021/01/09 03:56:04;;;;;;;90.83;49.53;;;;;;;-0.06;82.25;99977.47;120509;1151;104519;-82
2021/01/09 03:58:31;;;;;;;92.17;51.33;;;;;;;-0.05;82.49;99968.94;120572;1151;104351;-81
2021/01/09 04:00:58;;;;;;;95.10;51.00;;;;;;;-0.06;82.42;99977.47;120550;1150;104349;-81
2021/01/09 04:03:26;;;;;;;93.37;51.97;;;;;;;-0.07;82.37;99983.45;120561;1150;104313;-81
2021/01/09 04:05:53;;;;;;;85.50;48.60;;;;;;;-0.06;82.47;99974.05;120569;1150;104796;-81
2021/01/09 04:08:20;;;;;;;88.23;47.73;;;;;;;-0.08;82.69;99975.75;120572;1150;104321;-81
2021/01/09 04:10:47;;;;;;;101.55;52.40;;;;;;;-0.12;82.31;99977.44;120536;1150;104458;-81
2021/01/09 04:13:14;;;;;;;94.77;49.55;;;;;;;-0.09;82.60;99982.58;120602;1154;104319;-81
2021/01/09 04:15:42;;;;;;;95.80;52.37;;;;;;;-0.08;82.69;99981.73;120592;1151;104486;-81
2021/01/09 04:18:09;;;;;;;96.28;51.60;;;;;;;-0.08;82.62;99980.88;120649;1151;104937;-81
2021/01/09 04:20:36;;;;;;;94.00;50.67;;;;;;;-0.10;82.40;99987.70;121090;1151;104321;-81
2021/01/09 04:23:04;;;;;;;92.63;48.53;;;;;;;-0.12;82.80;99987.70;121363;1151;104263;-81
2021/01/09 04:25:33;;;;;;;90.37;50.20;;;;;;;-0.14;82.96;99984.27;121041;1151;104416;-81
2021/01/09 04:28:01;;;;;;;84.57;48.13;;;;;;;-0.15;82.43;99984.27;120548;1151;102737;-82
2021/01/09 04:30:28;;;;;;;90.97;49.20;;;;;;;-0.16;82.65;99983.41;120601;1150;104452;-82
2021/01/09 04:32:55;;;;;;;93.50;50.90;;;;;;;-0.17;82.81;99994.50;120528;1150;104343;-81
2021/01/09 04:35:23;;;;;;;87.93;47.87;;;;;;;-0.18;82.57;99991.90;120589;1150;103066;-81
2021/01/09 04:37:50;;;;;;;89.23;49.13;;;;;;;-0.18;82.87;99995.36;120525;1151;103154;-81
2021/01/09 04:40:17;;;;;;;90.90;49.20;;;;;;;-0.18;82.60;99995.36;120598;1151;104414;-81
2021/01/09 04:42:44;;;;;;;92.97;50.87;;;;;;;-0.18;82.74;100003.05;120630;1150;104474;-81
2021/01/09 04:45:12;;;;;;;95.10;50.50;;;;;;;-0.18;82.60;100000.48;120589;1151;104340;-81
2021/01/09 04:47:41;;;;;;;87.83;49.53;;;;;;;-0.18;82.65;100002.16;120707;1150;104339;-82
2021/01/09 04:50:09;;;;;;;89.53;47.43;;;;;;;-0.17;82.69;100004.76;120603;1151;104387;-82
2021/01/09 04:52:37;;;;;;;90.87;50.20;;;;;;;-0.16;83.08;100000.48;120637;1151;103082;-81
2021/01/09 04:55:05;;;;;;;88.35;48.10;;;;;;;-0.15;83.04;100003.06;120589;1150;104403;-81
2021/01/09 04:57:33;;;;;;;94.25;50.95;;;;;;;-0.13;82.73;100006.48;120610;1151;104352;-81
2021/01/09 05:00:04;;;;;;;92.00;49.67;;;;;;;-0.10;82.92;100006.51;120530;1151;102925;-81
2021/01/09 05:02:36;;;;;;;89.30;48.73;;;;;;;-0.10;82.67;100009.06;120598;1151;104393;-81
2021/01/09 05:05:06;;;;;;;93.73;50.90;;;;;;;-0.13;82.65;100011.61;120570;1151;104327;-81
2021/01/09 05:07:34;;;;;;;89.00;48.47;;;;;;;-0.14;83.06;100014.17;120525;1151;104499;-81
2021/01/09 05:10:04;;;;;;;99.17;52.90;;;;;;;-0.16;82.94;100011.59;120551;1150;104364;-81
2021/01/09 05:12:34;;;;;;;99.13;51.40;;;;;;;-0.15;82.92;100018.44;120611;1154;105302;-81
2021/01/09 05:15:02;;;;;;;86.43;46.80;;;;;;;-0.15;83.03;100020.14;120658;1150;104327;-81
2021/01/09 05:17:30;;;;;;;98.70;50.83;;;;;;;-0.15;83.05;100028.69;120520;1151;103175;-81
2021/01/09 05:19:58;;;;;;;90.27;49.60;;;;;;;-0.15;82.80;100017.58;120528;1150;104484;-81
2021/01/09 05:22:26;;;;;;;94.97;50.73;;;;;;;-0.15;82.96;100025.27;120577;1150;102572;-81
2021/01/09 05:24:54;;;;;;;97.87;51.10;;;;;;;-0.14;82.99;100020.16;120565;1151;104407;-81
2021/01/09 05:27:22;;;;;;;94.00;51.90;;;;;;;-0.15;82.92;100018.44;120578;1151;104340;-81
2021/01/09 05:29:56;;;;;;;104.60;54.97;;;;;;;-0.18;82.68;100023.55;120564;1151;104455;-81
2021/01/09 05:32:24;;;;;;;90.73;51.37;;;;;;;-0.17;82.65;100029.53;120580;1151;104479;-81
2021/01/09 05:34:53;;;;;;;103.03;53.70;;;;;;;-0.20;82.87;100027.78;120584;1151;104417;-82
2021/01/09 05:37:22;;;;;;;95.73;52.13;;;;;;;-0.21;83.05;100028.62;120543;1151;104634;-81
2021/01/09 05:39:52;;;;;;;100.27;54.80;;;;;;;-0.20;83.09;100037.17;120585;1151;104530;-81
2021/01/09 05:42:26;;;;;;;98.33;51.13;;;;;;;-0.21;83.03;100028.62;120602;1151;103151;-82
2021/01/09 05:44:56;;;;;;;101.20;54.03;;;;;;;-0.22;82.99;100029.47;120560;1151;104508;-82
2021/01/09 05:47:32;;;;;;;95.77;51.70;;;;;;;-0.22;83.04;100026.91;120539;1151;105616;-82
2021/01/09 05:50:00;;;;;;;109.43;56.27;;;;;;;-0.24;83.00;100036.30;120516;1150;104490;-82
2021/01/09 05:52:28;;;;;;;106.60;54.63;;;;;;;-0.24;82.98;100032.88;120555;1151;104473;-81
2021/01/09 05:54:59;;;;;;;102.37;54.20;;;;;;;-0.24;83.01;100038.00;120575;1151;104603;-81
2021/01/09 05:57:30;;;;;;;102.00;53.75;;;;;;;-0.24;82.88;100038.00;120528;1150;104404;-81
2021/01/09 06:00:06;;;;;;;100.43;53.10;;;;;;;-0.24;82.85;100038.00;120564;1150;104375;-81
2021/01/09 06:02:59;;;;;;;109.93;55.47;;;;;;;-0.23;82.95;100042.28;120608;1150;104324;-82
2021/01/09 06:05:35;;;;;;;114.80;58.47;;;;;;;-0.20;83.15;100048.28;120575;1151;104380;-82
2021/01/09 06:08:06;;;;;;;108.80;56.67;;;;;;;-0.17;83.01;100048.33;120559;1151;104374;-82
2021/01/09 06:10:40;;;;;;;100.50;52.77;;;;;;;-0.16;82.98;100051.75;120590;1151;104469;-82
2021/01/09 06:13:09;;;;;;;108.00;57.97;;;;;;;-0.17;82.91;100050.89;120655;1150;104786;-82
2021/01/09 06:15:42;;;;;;;117.47;61.00;;;;;;;-0.16;82.82;100051.75;121137;1151;104219;-81
2021/01/09 06:18:10;;;;;;;110.53;55.53;;;;;;;-0.14;82.96;100047.49;121302;1151;102212;-81
2021/01/09 06:20:38;;;;;;;111.83;57.10;;;;;;;-0.14;83.32;100050.91;120993;1150;103295;-81
2021/01/09 06:23:05;;;;;;;107.43;55.40;;;;;;;-0.13;82.89;100055.19;120580;1151;104550;-81
2021/01/09 06:25:35;;;;;;;106.00;53.30;;;;;;;-0.13;82.99;100062.02;120589;1151;104442;-81
2021/01/09 06:28:05;;;;;;;100.60;52.70;;;;;;;-0.14;83.15;100057.75;120631;1151;104320;-81
2021/01/09 06:30:34;;;;;;;105.90;55.47;;;;;;;-0.14;83.11;100060.31;120658;1151;104377;-81
2021/01/09 06:33:03;;;;;;;112.15;56.55;;;;;;;-0.13;83.14;100059.46;120619;1151;103225;-81
2021/01/09 06:35:33;;;;;;;107.57;58.43;;;;;;;-0.14;83.00;100061.16;120534;1150;104419;-81
2021/01/09 06:38:01;;;;;;;111.90;56.00;;;;;;;-0.15;83.07;100059.45;120557;1151;103124;-81
2021/01/09 06:40:29;;;;;;;111.00;56.73;;;;;;;-0.12;83.23;100062.03;120512;1151;104373;-81
2021/01/09 06:42:57;;;;;;;107.37;56.23;;;;;;;-0.11;83.25;100058.63;120558;1151;104326;-81
2021/01/09 06:45:24;;;;;;;105.63;55.60;;;;;;;-0.14;83.16;100065.44;120563;1151;104591;-81
2021/01/09 06:48:01;;;;;;;109.33;57.70;;;;;;;-0.16;83.29;100060.30;120536;1151;104365;-82
2021/01/09 06:50:33;;;;;;;110.30;58.20;;;;;;;-0.15;83.22;100069.70;120546;1151;104404;-82
2021/01/09 06:53:04;;;;;;;115.37;57.67;;;;;;;-0.14;83.35;100063.73;120552;1151;104417;-81
2021/01/09 06:55:38;;;;;;;108.30;56.93;;;;;;;-0.12;83.46;100074.85;120602;1151;104374;-82
2021/01/09 06:58:16;;;;;;;108.90;55.67;;;;;;;-0.15;83.23;100072.27;120699;1150;104482;-82
2021/01/09 07:00:43;;;;;;;114.27;59.40;;;;;;;-0.14;83.37;100075.69;120538;1151;104316;-82
2021/01/09 07:03:11;;;;;;;106.33;55.67;;;;;;;-0.14;83.12;100081.67;120620;1151;104454;-81
2021/01/09 07:05:52;;;;;;;113.10;58.60;;;;;;;-0.14;83.19;100081.67;120581;1151;104439;-81
2021/01/09 07:08:26;;;;;;;113.50;56.23;;;;;;;-0.14;83.15;100081.67;120615;1150;104361;-81
2021/01/09 07:10:56;;;;;;;116.20;59.33;;;;;;;-0.13;83.28;100085.95;120645;1151;104508;-81
2021/01/09 07:13:24;;;;;;;114.80;58.23;;;;;;;-0.13;83.44;100088.52;120641;1151;104537;-80
2021/01/09 07:16:14;;;;;;;124.20;60.83;;;;;;;-0.12;83.88;100086.81;120645;1151;104394;-82
2021/01/09 07:18:47;;;;;;;121.97;60.87;;;;;;;-0.11;83.26;100085.97;120560;1151;103689;-82
2021/01/09 07:21:19;;;;;;;122.17;60.57;;;;;;;-0.11;83.48;100085.97;120526;1151;104393;-81
2021/01/09 07:23:55;;;;;;;136.37;65.13;;;;;;;-0.07;83.29;100092.83;120543;1151;104406;-81
2021/01/09 07:26:24;;;;;;;125.07;63.03;;;;;;;-0.09;83.45;100092.81;120553;1151;104359;-82
2021/01/09 07:28:52;;;;;;;126.27;63.77;;;;;;;-0.08;83.20;100102.22;120591;1150;101999;-81
2021/01/09 07:31:28;;;;;;;135.80;64.40;;;;;;;-0.10;83.32;100101.35;120550;1151;104374;-81
2021/01/09 07:33:57;;;;;;;122.15;61.45;;;;;;;-0.10;83.25;100103.06;120562;1151;104406;-81
2021/01/09 07:36:31;;;;;;;126.50;62.90;;;;;;;-0.10;83.31;100103.06;120726;1151;104531;-81
2021/01/09 07:39:06;;;;;;;127.63;62.63;;;;;;;-0.14;83.45;100107.31;120517;1150;104591;-81
2021/01/09 07:41:37;;;;;;;124.60;60.77;;;;;;;-0.12;83.54;100109.88;120571;1153;104775;-81
2021/01/09 07:44:22;;;;;;;120.20;60.33;;;;;;;-0.12;83.96;100113.30;120624;1150;103626;-81
2021/01/09 07:46:55;;;;;;;123.47;58.03;;;;;;;-0.12;83.66;100105.61;120588;1151;104336;-82
2021/01/09 07:49:30;;;;;;;125.60;61.30;;;;;;;-0.13;83.54;100109.02;120602;1151;104425;-82
2021/01/09 07:52:08;;;;;;;126.55;60.40;;;;;;;-0.14;83.48;100117.56;120562;1150;104358;-82
2021/01/09 07:54:39;;;;;;;124.27;59.73;;;;;;;-0.13;83.58;100114.15;120623;1151;104349;-82
2021/01/09 07:57:18;;;;;;;124.10;58.90;;;;;;;-0.14;83.45;100122.69;120641;1150;103014;-82
2021/01/09 07:59:55;;;;;;;120.80;59.77;;;;;;;-0.13;83.95;100115.86;120697;1150;104313;-81
2021/01/09 08:02:23;;;;;;;125.90;61.40;;;;;;;-0.11;83.80;100117.58;120765;1149;104343;-81
2021/01/09 08:05:08;;;;;;;115.10;57.67;;;;;;;-0.07;83.85;100111.63;120527;1154;104394;-81
2021/01/09 08:07:40;;;;;;;123.00;60.13;;;;;;;-0.06;83.92;100121.03;120698;1151;104309;-82
2021/01/09 08:10:19;;;;;;;110.57;56.47;;;;;;;-0.05;83.96;100124.45;120763;1150;104016;-82
2021/01/09 08:12:52;;;;;;;116.53;57.73;;;;;;;-0.03;83.73;100120.20;121126;1151;103122;-82
2021/01/09 08:15:20;;;;;;;126.43;60.10;;;;;;;-0.03;83.73;100118.49;121132;1151;104545;-81
2021/01/09 08:17:47;;;;;;;122.10;59.57;;;;;;;-0.03;83.47;100120.20;120540;1151;104383;-81
2021/01/09 08:20:16;;;;;;;109.60;56.10;;;;;;;-0.02;83.65;100116.78;120617;1151;104388;-81
2021/01/09 08:22:53;;;;;;;116.63;57.90;;;;;;;-0.05;83.61;100127.02;120598;1151;103031;-81
2021/01/09 08:25:23;;;;;;;125.00;59.90;;;;;;;-0.05;83.74;100129.59;120599;1151;102951;-81
2021/01/09 08:27:53;;;;;;;111.90;57.43;;;;;;;-0.04;83.77;100127.03;120627;1151;104484;-81
2021/01/09 08:30:23;;;;;;;123.03;58.20;;;;;;;-0.06;83.53;100125.30;120594;1151;104346;-81
2021/01/09 08:33:08;;;;;;;112.27;57.43;;;;;;;-0.05;84.10;100130.44;120588;1150;104959;-81
2021/01/09 08:35:39;;;;;;;119.05;56.15;;;;;;;-0.03;83.66;100135.58;120585;1150;104416;-82
2021/01/09 08:38:06;;;;;;;112.07;55.97;;;;;;;-0.02;83.71;100137.30;120613;1151;104541;-82
2021/01/09 08:40:34;;;;;;;111.10;55.27;;;;;;;-0.02;83.57;100133.03;120498;1151;104348;-82
2021/01/09 08:43:05;;;;;;;122.37;59.40;;;;;;;-0.02;83.54;100133.03;120559;1151;104451;-81
2021/01/09 08:45:42;;;;;;;122.10;59.50;;;;;;;0.02;83.96;100133.08;120595;1150;104398;-81
2021/01/09 08:48:12;;;;;;;112.87;54.27;;;;;;;-0.01;83.59;100145.00;120615;1150;104534;-81
2021/01/09 08:50:45;;;;;;;112.77;54.50;;;;;;;-0.03;83.84;100149.26;120621;1151;104446;-81
2021/01/09 08:53:16;;;;;;;116.73;55.37;;;;;;;-0.02;83.68;100142.42;120678;1151;104321;-82
2021/01/09 08:55:44;;;;;;;119.80;55.43;;;;;;;-0.02;83.84;100150.97;120597;1150;104164;-82
2021/01/09 08:58:13;;;;;;;120.03;59.43;;;;;;;0.02;84.05;100145.91;120644;1151;104364;-82
2021/01/09 09:00:41;;;;;;;118.57;57.97;;;;;;;0.04;83.70;100151.90;120619;1151;104314;-82
2021/01/09 09:03:11;;;;;;;111.77;54.40;;;;;;;0.03;83.50;100145.05;120571;1151;104375;-82
2021/01/09 09:05:40;;;;;;;117.87;57.70;;;;;;;0.04;83.66;100147.62;120601;1151;103239;-82
2021/01/09 09:08:12;;;;;;;119.03;56.20;;;;;;;0.07;83.49;100151.92;120590;1151;104572;-81
2021/01/09 09:10:46;;;;;;;112.40;55.20;;;;;;;0.07;83.67;100151.92;120578;1150;104374;-82
2021/01/09 09:13:20;;;;;;;113.13;53.13;;;;;;;0.04;83.59;100142.50;120624;1150;104461;-81
2021/01/09 09:15:48;;;;;;;116.97;55.40;;;;;;;0.06;83.75;100150.20;120614;1151;104315;-81
2021/01/09 09:18:16;;;;;;;114.20;54.43;;;;;;;0.06;83.81;100140.80;120667;1151;104448;-82
2021/01/09 09:20:51;;;;;;;114.23;54.43;;;;;;;0.07;83.50;100139.10;120598;1150;104478;-82
2021/01/09 09:23:19;;;;;;;113.43;55.47;;;;;;;0.06;83.56;100139.95;120590;1151;104359;-82
2021/01/09 09:26:11;;;;;;;112.93;55.27;;;;;;;0.09;83.37;100132.27;120547;1151;104305;-82
2021/01/09 09:28:46;;;;;;;114.23;55.80;;;;;;;0.09;83.50;100139.97;120680;1151;104451;-82
2021/01/09 09:31:23;;;;;;;117.83;55.03;;;;;;;0.10;83.51;100136.55;120643;1150;104482;-82
2021/01/09 09:34:00;;;;;;;114.87;54.43;;;;;;;0.07;83.66;100146.80;120596;1150;104605;-81
2021/01/09 09:36:28;;;;;;;120.57;55.33;;;;;;;0.07;83.74;100146.80;120638;1150;104401;-80
2021/01/09 09:38:55;;;;;;;122.27;54.63;;;;;;;0.08;83.37;100143.38;120583;1151;104337;-82
2021/01/09 09:41:23;;;;;;;123.33;54.50;;;;;;;0.10;83.53;100144.25;120588;1152;104420;-81
2021/01/09 09:44:00;;;;;;;119.00;53.97;;;;;;;0.12;83.53;100150.24;120610;1151;103213;-82
2021/01/09 09:46:39;;;;;;;121.25;54.83;;;;;;;0.11;83.49;100148.53;120563;1151;104326;-82
2021/01/09 09:49:06;;;;;;;126.90;57.90;;;;;;;0.07;83.64;100145.09;120625;1150;104415;-81
2021/01/09 09:51:35;;;;;;;124.67;56.70;;;;;;;0.08;83.37;100138.25;120608;1150;104411;-82
2021/01/09 09:54:04;;;;;;;128.00;57.20;;;;;;;0.09;83.40;100125.44;120666;1150;104321;-82
2021/01/09 09:56:37;;;;;;;122.10;55.30;;;;;;;0.11;83.50;100140.83;120571;1149;103211;-82
2021/01/09 09:59:06;;;;;;;125.00;56.20;;;;;;;0.12;83.72;100145.11;120557;1151;104368;-82
2021/01/09 10:01:34;;;;;;;129.53;58.27;;;;;;;0.15;83.70;100134.88;120722;1151;104393;-81
2021/01/09 10:04:07;;;;;;;127.67;55.60;;;;;;;0.20;83.64;100140.92;120607;1150;104829;-81
2021/01/09 10:06:35;;;;;;;118.43;51.63;;;;;;;0.22;83.79;100134.10;121060;1151;102136;-80
2021/01/09 10:09:13;;;;;;;132.30;56.23;;;;;;;0.24;83.46;100134.97;121187;1151;102984;-80
2021/01/09 10:11:42;;;;;;;128.57;55.83;;;;;;;0.26;83.49;100138.40;120969;1150;104366;-82
2021/01/09 10:14:25;;;;;;;112.37;52.83;;;;;;;0.33;83.39;100140.15;120595;1150;104369;-81
2021/01/09 10:16:52;;;;;;;109.90;51.50;;;;;;;0.33;83.00;100137.58;120576;1151;104438;-81
2021/01/09 10:19:19;;;;;;;112.93;50.93;;;;;;;0.35;83.17;100129.89;120578;1150;104354;-81
2021/01/09 10:21:47;;;;;;;125.35;53.70;;;;;;;0.38;83.22;100143.63;120620;1151;104426;-82
2021/01/09 10:24:14;;;;;;;118.87;51.43;;;;;;;0.42;83.09;100136.81;120565;1151;104356;-82
2021/01/09 10:26:41;;;;;;;112.53;51.50;;;;;;;0.43;83.20;100131.69;120583;1150;104854;-82
2021/01/09 10:29:14;;;;;;;116.67;50.50;;;;;;;0.48;83.25;100127.44;120572;1151;104359;-81
2021/01/09 10:31:41;;;;;;;118.87;49.40;;;;;;;0.49;82.87;100130.86;120543;1151;104451;-81
2021/01/09 10:34:09;;;;;;;114.87;50.67;;;;;;;0.50;82.77;100127.44;120586;1151;104404;-81
2021/01/09 10:36:40;;;;;;;118.70;52.73;;;;;;;0.54;83.15;100130.06;120483;1151;104595;-81
2021/01/09 10:39:08;;;;;;;116.27;49.13;;;;;;;0.59;82.97;100133.51;120548;1150;104420;-81
2021/01/09 10:41:37;;;;;;;109.53;48.27;;;;;;;0.63;82.76;100133.52;120611;1150;104454;-81
2021/01/09 10:44:04;;;;;;;103.93;47.40;;;;;;;0.65;82.54;100140.38;120578;1151;104885;-81
2021/01/09 10:46:32;;;;;;;100.17;46.13;;;;;;;0.66;82.62;100138.67;120551;1151;104326;-81
2021/01/09 10:49:01;;;;;;;111.83;49.97;;;;;;;0.67;82.82;100132.69;120530;1148;104278;-82
2021/01/09 10:51:29;;;;;;;102.27;46.57;;;;;;;0.68;82.55;100136.97;120579;1151;104347;-82
2021/01/09 10:53:57;;;;;;;115.73;49.93;;;;;;;0.70;82.50;100137.83;120589;1150;104418;-81
2021/01/09 10:56:25;;;;;;;102.80;46.80;;;;;;;0.69;82.44;100136.97;120561;1151;104326;-81
2021/01/09 10:58:52;;;;;;;122.95;49.53;;;;;;;0.65;82.55;100126.69;120581;1151;104356;-81
2021/01/09 11:01:21;;;;;;;113.33;50.10;;;;;;;0.63;82.63;100141.22;120524;1151;104397;-81
2021/01/09 11:03:48;;;;;;;112.07;50.13;;;;;;;0.60;82.63;100135.22;120660;1151;103556;-81